^^
Datos históricos de la estación: Murcia-Puente Tocinos
Diario Informe para Febrero 17, 2019 Unidades:  Ingés    Métrico   Ambas
Diario Semanal Mensual Anual
  Máxima: Mínima: Promedio:
Temperatura: 96.6 °F 73.6 °F 83.3 °F
Punto de rocio: 72.3 °F 60.1 °F 68 °F
Humedad: 89% 31.9% 64%
Velocidad viento: 10.7mph 0mph 4.6mph
Racha viento: 20mph - -
Viento- - ESE
Presión: 30 in 29.8 in -
Precipitación: 0 in    
 
 
Tabla de datos para Febrero 17, 2019
Hora Temperatura Punto de rocio Presión Viento Velocidad viento Racha viento Humedad Intensidad lluvia(por hora) Nubes
00:04 77.2 °F 72.3 °F 30 in NNE 6.4 mph 10 mph 85% 0 in
00:09 77.2 °F 72.3 °F 30 in NNE 6.3 mph 9 mph 85% 0 in
00:14 77 °F 72.1 °F 30 in NE 5.9 mph 8 mph 85% 0 in
00:19 76.8 °F 72 °F 30 in NE 5.7 mph 8.1 mph 85% 0 in
00:24 76.8 °F 72 °F 30 in NE 5.2 mph 9.2 mph 85% 0 in
00:29 76.6 °F 72.1 °F 30 in NE 5.4 mph 9 mph 85.9% 0 in
00:34 76.6 °F 72.1 °F 30 in NE 5.9 mph 9 mph 86% 0 in
00:39 76.6 °F 72.1 °F 30 in NE 5.7 mph 8.5 mph 86% 0 in
00:44 76.5 °F 72 °F 30 in NE 5.2 mph 9 mph 86% 0 in
00:49 76.5 °F 72 °F 30 in NE 5.3 mph 9 mph 86% 0 in
00:54 76.5 °F 72.3 °F 30 in NE 5.4 mph 9 mph 86.9% 0 in
00:59 76.5 °F 72.3 °F 30 in NE 5.6 mph 9.2 mph 87% 0 in
01:04 76.5 °F 72.3 °F 30 in NE 5.9 mph 9 mph 87% 0 in
01:09 76.5 °F 72.3 °F 30 in NE 5.8 mph 8.5 mph 87% 0 in
01:14 76.5 °F 72.3 °F 30 in NE 5.4 mph 9 mph 87% 0 in
01:19 76.3 °F 72.1 °F 30 in NE 5.3 mph 8.1 mph 87% 0 in
01:24 76.3 °F 72.1 °F 30 in NE 5.2 mph 8.1 mph 87% 0 in
01:29 76.3 °F 72.1 °F 30 in NE 5 mph 7 mph 87% 0 in
01:34 76.3 °F 72.1 °F 30 in NE 4.7 mph 8.1 mph 87.2% 0 in
01:39 76.1 °F 72.3 °F 30 in NE 4.9 mph 8.5 mph 88% 0 in
01:44 75.9 °F 72.1 °F 30 in NE 5.4 mph 9 mph 88% 0 in
01:49 75.9 °F 72.1 °F 30 in NE 5.3 mph 8 mph 88% 0 in
01:54 75.9 °F 72.1 °F 30 in NE 5.2 mph 7 mph 88% 0 in
01:59 75.7 °F 72 °F 30 in NE 4.8 mph 7 mph 88% 0 in
02:04 75.7 °F 72 °F 30 in NE 4 mph 7 mph 88% 0 in
02:09 75.6 °F 71.8 °F 30 in NE 4.1 mph 7 mph 88.1% 0 in
02:14 75.6 °F 72.1 °F 30 in NE 4.3 mph 6.2 mph 89% 0 in
02:19 75.6 °F 72.1 °F 30 in NE 4.2 mph 6.2 mph 89% 0 in
02:24 75.6 °F 72.1 °F 30 in NE 4 mph 6 mph 89% 0 in
02:29 75.6 °F 72.1 °F 30 in NE 3.9 mph 6 mph 89% 0 in
02:34 75.6 °F 72.1 °F 30 in NE 3.6 mph 6 mph 89% 0 in
02:39 75.7 °F 72.1 °F 30 in NE 3.3 mph 5 mph 88.5% 0 in
02:44 75.6 °F 71.8 °F 30 in NE 2.4 mph 6 mph 88% 0 in
02:49 75.6 °F 72 °F 30 in NE 2.7 mph 6 mph 88.5% 0 in
02:54 75.6 °F 72.1 °F 30 in NE 3.6 mph 6 mph 89% 0 in
02:59 75.4 °F 72 °F 30 in NE 3.6 mph 6 mph 89% 0 in
03:04 75.4 °F 72 °F 30 in NE 3.6 mph 6 mph 89% 0 in
03:09 75.4 °F 71.8 °F 30 in ENE 3 mph 5 mph 89% 0 in
03:14 75.4 °F 71.8 °F 30 in NE 1.8 mph 3 mph 89% 0 in
03:19 75.4 °F 72 °F 30 in NNE 1.3 mph 2 mph 89% 0 in
03:24 75.4 °F 71.8 °F 30 in Calm   4 mph 89% 0 in
03:29 75.4 °F 72 °F 30 in NNO 0.5 mph 5 mph 89% 0 in
03:34 75.4 °F 71.8 °F 30 in NNO 1.8 mph 2 mph 89% 0 in
03:39 75.2 °F 71.6 °F 30 in NNO 1.3 mph   88.4% 0 in
03:44 75 °F 71.4 °F 30 in Calm     88.2% 0 in
03:49 75 °F 71.2 °F 30 in Calm   2.3 mph 88% 0 in
03:54 75 °F 71.2 °F 30 in Calm   2.9 mph 88% 0 in
03:59 75 °F 71.2 °F 30 in Calm   3 mph 88% 0 in
04:04 74.8 °F 71.1 °F 30 in Calm     88% 0 in
04:09 74.8 °F 71.1 °F 30 in Calm     88% 0 in
04:14 74.8 °F 71.1 °F 30 in Calm   2.9 mph 88% 0 in
04:19 74.8 °F 71.1 °F 30 in Calm   3 mph 88% 0 in
04:24 74.7 °F 70.9 °F 29.9 in Calm   2 mph 88% 0 in
04:29 74.7 °F 70.9 °F 29.9 in Calm     88% 0 in
04:34 74.8 °F 71.1 °F 29.9 in Calm     88% 0 in
04:39 74.8 °F 70.7 °F 29.9 in Calm     87.5% 0 in
04:44 74.7 °F 70.5 °F 29.9 in Calm   3.6 mph 87% 0 in
04:49 74.5 °F 70.2 °F 29.9 in SE 0.5 mph 4.6 mph 86.4% 0 in
04:54 74.5 °F 70 °F 29.9 in SE 1.8 mph 5 mph 86% 0 in
04:59 74.3 °F 70.2 °F 29.9 in ESE 1.8 mph 4 mph 86.6% 0 in
05:04 74.5 °F 70.3 °F 29.9 in ESE 1.8 mph 2 mph 87% 0 in
05:09 74.5 °F 70.3 °F 29.9 in ESE 1.2 mph 2.3 mph 87% 0 in
05:14 74.5 °F 70.2 °F 29.9 in Calm   2 mph 86.4% 0 in
05:19 74.5 °F 70 °F 29.9 in Calm     86% 0 in
05:24 74.1 °F 69.8 °F 29.9 in Calm     86% 0 in
05:29 74.1 °F 69.6 °F 29.9 in Calm     86% 0 in
05:34 73.9 °F 69.4 °F 29.9 in Calm   3.1 mph 86% 0 in
05:39 73.9 °F 69.4 °F 29.9 in NO 0.4 mph 3.5 mph 86% 0 in
05:44 73.9 °F 69.6 °F 29.9 in NO 1.4 mph 2 mph 86.9% 0 in
05:49 73.8 °F 69.6 °F 29.9 in NO 1 mph   87% 0 in
05:54 73.8 °F 69.6 °F 29.9 in Calm     87% 0 in
05:59 73.8 °F 69.6 °F 29.9 in Calm     87% 0 in
06:04 73.8 °F 69.6 °F 29.9 in Calm     87% 0 in
06:09 73.6 °F 69.4 °F 29.9 in Calm     87% 0 in
06:14 73.8 °F 70 °F 29.9 in Calm     87.9% 0 in
06:19 73.8 °F 69.6 °F 29.9 in Calm     87% 0 in
06:24 73.6 °F 69.4 °F 29.9 in Calm     87% 0 in
06:29 73.6 °F 69.4 °F 29.9 in Calm     87% 0 in
06:34 73.6 °F 69.8 °F 29.9 in Calm     87.9% 0 in
06:39 73.8 °F 69.8 °F 29.9 in Calm     87.7% 0 in
06:44 73.8 °F 69.8 °F 29.9 in Calm     87.5% 0 in
06:49 73.8 °F 70 °F 29.9 in Calm     88.1% 0 in
06:54 73.9 °F 70.5 °F 29.9 in Calm     89% 0 in
06:59 73.9 °F 70.5 °F 29.9 in Calm     89% 0 in
07:04 73.9 °F 70.3 °F 29.9 in Calm     88.6% 0 in
07:09 73.9 °F 70 °F 29.9 in Calm     87.6% 0 in
07:14 73.8 °F 69.6 °F 29.9 in Calm     87% 0 in
07:19 73.8 °F 69.6 °F 29.9 in Calm     87% 0 in
07:24 73.8 °F 69.6 °F 29.9 in Calm     87% 0 in
07:29 73.9 °F 69.8 °F 29.9 in Calm     87% 0 in
07:34 73.9 °F 69.8 °F 29.9 in Calm     87% 0 in
07:39 73.9 °F 69.8 °F 29.9 in Calm     87% 0 in
07:44 74.1 °F 70.2 °F 29.9 in Calm     87.8% 0 in
07:49 74.1 °F 70.3 °F 29.9 in Calm   3.5 mph 88% 0 in
07:54 74.3 °F 70.5 °F 29.9 in Calm   3 mph 88% 0 in
07:59 74.1 °F 70.3 °F 29.9 in NO 0.4 mph 3 mph 88% 0 in
08:04 74.1 °F 70.5 °F 30 in NO 1.4 mph 3 mph 88.3% 0 in
08:09 74.1 °F 70.7 °F 30 in NNO 1 mph   88.8% 0 in
08:14 74.3 °F 70.9 °F 30 in Calm     88.8% 0 in
08:19 74.5 °F 71.1 °F 30 in Calm   2.9 mph 89% 0 in
08:24 74.7 °F 71.1 °F 30 in Calm   3 mph 89% 0 in
08:29 74.8 °F 71.1 °F 30 in Calm   3 mph 88.4% 0 in
08:34 75 °F 71.2 °F 30 in Calm   3.6 mph 88% 0 in
08:39 75.2 °F 71.2 °F 30 in Oeste 0.5 mph 4.7 mph 87.7% 0 in
08:44 75.6 °F 71.2 °F 30 in OSO 1.8 mph 5.9 mph 86.9% 0 in
08:49 75.7 °F 71.4 °F 30 in OSO 2.2 mph 7.4 mph 86% 0 in
08:54 75.9 °F 71.2 °F 30 in OSO 3.1 mph 7 mph 85.1% 0 in
08:59 76.1 °F 71.1 °F 30 in OSO 3.6 mph 8.1 mph 84.3% 0 in
09:04 76.1 °F 70.9 °F 30 in OSO 4.7 mph 8 mph 84.2% 0 in
09:09 76.3 °F 71.2 °F 30 in SO 4.5 mph 7 mph 84.7% 0 in
09:14 76.3 °F 71.2 °F 30 in OSO 4 mph 8.1 mph 84% 0 in
09:19 76.5 °F 71.2 °F 30 in OSO 4.1 mph 8 mph 84% 0 in
09:24 76.5 °F 71.2 °F 30 in OSO 4.3 mph 7 mph 84% 0 in
09:29 76.6 °F 71.4 °F 30 in SO 4.3 mph 7 mph 84% 0 in
09:34 76.6 °F 71.4 °F 30 in SSO 4.3 mph 7 mph 83.6% 0 in
09:39 77 °F 71.4 °F 30 in SO 4 mph 6.2 mph 82.7% 0 in
09:44 77.4 °F 71.4 °F 30 in SSO 3.1 mph 7.4 mph 82% 0 in
09:49 77.4 °F 71.4 °F 30 in SSO 3.4 mph 7 mph 82% 0 in
09:54 77.5 °F 71.2 °F 30 in Sur 4 mph 7.6 mph 81.3% 0 in
09:59 77.5 °F 71.2 °F 30 in SSO 4.1 mph 8.1 mph 80.7% 0 in
10:04 77.5 °F 71.1 °F 30 in SSO 4.3 mph 8 mph 80.3% 0 in
10:09 77.7 °F 71.2 °F 30 in SSO 4.2 mph 7 mph 80.5% 0 in
10:14 78.1 °F 71.2 °F 30 in SSO 4 mph 6.2 mph 79.6% 0 in
10:19 78.4 °F 71.1 °F 30 in SSO 3.9 mph 6.2 mph 78.4% 0 in
10:24 78.6 °F 71.2 °F 30 in Sur 3.6 mph 6 mph 78% 0 in
10:29 79.2 °F 71.2 °F 30 in SSO 3.4 mph 5.9 mph 76.8% 0 in
10:34 79.3 °F 71.1 °F 30 in Sur 2.9 mph 6 mph 75.9% 0 in
10:39 79.7 °F 71.1 °F 30 in SSO 2.9 mph 5.2 mph 74.6% 0 in
10:44 80.1 °F 70.9 °F 30 in NO 2.9 mph 5 mph 73.8% 0 in
10:49 80.4 °F 71.1 °F 30 in NO 2.6 mph 5 mph 73% 0 in
10:54 81 °F 71.1 °F 30 in NO 2 mph 8.1 mph 72% 0 in
10:59 81.1 °F 70.7 °F 30 in ONO 2.1 mph 8 mph 70.5% 0 in
11:04 81.3 °F 70.2 °F 30 in NNO 2.4 mph 6 mph 69% 0 in
11:09 81.7 °F 70.2 °F 30 in SSE 2.4 mph 5 mph 68.1% 0 in
11:14 82 °F 69.6 °F 30 in ESE 2.4 mph 5 mph 66.2% 0 in
11:19 82.8 °F 69.3 °F 30 in ONO 2.5 mph 5.8 mph 64.1% 0 in
11:24 82.8 °F 68.7 °F 30 in NO 2.9 mph 6 mph 62.4% 0 in
11:29 83.5 °F 68.5 °F 30 in NNO 2.6 mph 4.6 mph 60.9% 0 in
11:34 84.2 °F 68.9 °F 30 in ONO 1.8 mph 5 mph 60% 0 in
11:39 85.1 °F 67.6 °F 30 in Sur 1.9 mph 5.4 mph 56.1% 0 in
11:44 85.5 °F 65.8 °F 30 in NNO 2 mph 6 mph 52% 0 in
11:49 85.8 °F 65.1 °F 30 in NE 2.2 mph 8.1 mph 50% 0 in
11:54 86.4 °F 64.8 °F 30 in NNE 2.9 mph 8 mph 48.7% 0 in
11:59 86.5 °F 64.6 °F 30 in ENE 3.2 mph 8.1 mph 48% 0 in
12:04 86.5 °F 65.1 °F 30 in NE 4 mph 8 mph 48.9% 0 in
12:09 86.9 °F 65.7 °F 30 in NE 3.6 mph 7 mph 49.3% 0 in
12:14 87.4 °F 66.6 °F 30 in NE 2.4 mph 10.4 mph 49.9% 0 in
12:19 87.4 °F 66 °F 30 in NE 3 mph 10 mph 49.3% 0 in
12:24 87.4 °F 66 °F 29.9 in NE 4.7 mph 10.4 mph 49.1% 0 in
12:29 87.8 °F 66.9 °F 29.9 in NNE 4.6 mph 10 mph 50.2% 0 in
12:34 88 °F 66.9 °F 29.9 in North 4.3 mph 10.7 mph 49.7% 0 in
12:39 88.2 °F 66.9 °F 29.9 in NNE 4.4 mph 11 mph 49.5% 0 in
12:44 88.3 °F 66.7 °F 29.9 in NNE 4.7 mph 11 mph 49% 0 in
12:49 88.5 °F 66.6 °F 29.9 in North 4.9 mph 9.2 mph 48.5% 0 in
12:54 89.1 °F 66.2 °F 29.9 in ENE 5.4 mph 9 mph 47% 0 in
12:59 89.8 °F 65.7 °F 29.9 in NE 5 mph 9.2 mph 45.3% 0 in
13:04 90.3 °F 64.4 °F 29.9 in NNE 4.3 mph 9.2 mph 42.5% 0 in
13:09 90.7 °F 64.8 °F 29.9 in NNE 4.7 mph 10.4 mph 42.5% 0 in
13:14 91 °F 64.9 °F 29.9 in NE 5.4 mph 10 mph 42.2% 0 in
13:19 91.6 °F 65.3 °F 29.9 in NE 5 mph 9.2 mph 42% 0 in
13:24 91.9 °F 63.7 °F 29.9 in Este 4 mph 10.4 mph 39.3% 0 in
13:29 92.7 °F 63.1 °F 29.9 in ENE 4.3 mph 10.4 mph 37.7% 0 in
13:34 92.8 °F 60.6 °F 29.9 in ESE 5.2 mph 10.4 mph 34.4% 0 in
13:39 93.6 °F 62.6 °F 29.9 in ENE 5.2 mph 10 mph 36.1% 0 in
13:44 93.7 °F 61 °F 29.9 in ENE 5.4 mph 9 mph 33.8% 0 in
13:49 93.9 °F 60.3 °F 29.9 in ENE 5.2 mph 8 mph 32.8% 0 in
13:54 94.3 °F 60.3 °F 29.9 in ENE 4.7 mph 9.2 mph 32.4% 0 in
13:59 94.5 °F 60.4 °F 29.9 in NE 5.1 mph 9.2 mph 32.5% 0 in
14:04 94.5 °F 60.3 °F 29.9 in Este 5.9 mph 13.5 mph 32.1% 0 in
14:09 94.5 °F 60.1 °F 29.9 in Este 5.9 mph 14 mph 31.9% 0 in
14:14 94.5 °F 60.1 °F 29.9 in Este 5.9 mph 13 mph 32.1% 0 in
14:19 94.6 °F 61 °F 29.9 in ESE 6 mph 13.8 mph 33% 0 in
14:24 94.6 °F 61.3 °F 29.9 in Este 6.4 mph 14 mph 33.3% 0 in
14:29 94.6 °F 61.3 °F 29.9 in ENE 6.3 mph 12 mph 33.3% 0 in
14:34 95 °F 62.2 °F 29.9 in ESE 6.2 mph 13 mph 34.1% 0 in
14:39 95 °F 62.2 °F 29.9 in ENE 6.1 mph 13 mph 34.2% 0 in
14:44 95.2 °F 62.6 °F 29.9 in ENE 5.9 mph 15 mph 34.4% 0 in
14:49 95.4 °F 63.5 °F 29.9 in Este 5.9 mph 15 mph 35% 0 in
14:54 95.7 °F 63.5 °F 29.9 in Este 5.9 mph 10.4 mph 34.8% 0 in
14:59 96.1 °F 63.1 °F 29.9 in Este 5.8 mph 10 mph 34.2% 0 in
15:04 96.3 °F 63 °F 29.9 in NE 5.4 mph 10.7 mph 33.6% 0 in
15:09 96.1 °F 63.5 °F 29.9 in Este 5.2 mph 11 mph 34.3% 0 in
15:14 96.3 °F 63.3 °F 29.9 in Este 4.7 mph 10 mph 34% 0 in
15:19 96.3 °F 63.7 °F 29.9 in NNE 4.6 mph 9.2 mph 34.5% 0 in
15:24 96.4 °F 64.8 °F 29.9 in SE 4.3 mph 13.8 mph 35.5% 0 in
15:29 96.3 °F 64.6 °F 29.9 in SE 4.7 mph 14 mph 35.5% 0 in
15:34 96.3 °F 64.4 °F 29.9 in ESE 5.9 mph 12 mph 35.2% 0 in
15:39 96.3 °F 64.9 °F 29.9 in SE 5.7 mph 13 mph 35.9% 0 in
15:44 96.4 °F 65.5 °F 29.9 in ESE 5.2 mph 13 mph 36.3% 0 in
15:49 96.4 °F 65.5 °F 29.9 in SE 5.8 mph 13.8 mph 36.5% 0 in
15:54 96.3 °F 65.7 °F 29.9 in SE 7.4 mph 14 mph 36.8% 0 in
15:59 96.3 °F 65.8 °F 29.9 in ESE 8 mph 16.1 mph 37% 0 in
16:04 96.3 °F 65.7 °F 29.9 in SE 9.2 mph 16 mph 36.8% 0 in
16:09 96.3 °F 65.3 °F 29.9 in ESE 8.9 mph 15 mph 36.2% 0 in
16:14 96.3 °F 65.8 °F 29.9 in SE 8.1 mph 14.7 mph 37% 0 in
16:19 96.3 °F 65.3 °F 29.9 in ESE 8.4 mph 15 mph 36.4% 0 in
16:24 96.3 °F 65.3 °F 29.9 in SE 9.2 mph 13.8 mph 36.4% 0 in
16:29 96.6 °F 66.4 °F 29.9 in ESE 8.8 mph 16.1 mph 37.5% 0 in
16:34 96.6 °F 66.4 °F 29.9 in SE 7.6 mph 16 mph 37.5% 0 in
16:39 96.4 °F 66.9 °F 29.9 in ESE 7.8 mph 17.5 mph 38.5% 0 in
16:44 96.3 °F 67.1 °F 29.9 in SE 8.5 mph 17 mph 38.8% 0 in
16:49 96.4 °F 68.4 °F 29.9 in SE 8.5 mph 15.6 mph 40.1% 0 in
16:54 96.4 °F 68.4 °F 29.9 in ESE 8.5 mph 16.1 mph 40.3% 0 in
16:59 96.1 °F 68.7 °F 29.9 in ESE 9 mph 18.4 mph 41.2% 0 in
17:04 95.9 °F 68.7 °F 29.9 in SE 10.2 mph 18 mph 41.4% 0 in
17:09 95.9 °F 68.7 °F 29.9 in SE 10.1 mph 17.3 mph 41.6% 0 in
17:14 95.5 °F 69.3 °F 29.9 in ESE 9.7 mph 17 mph 42.7% 0 in
17:19 95.5 °F 69.4 °F 29.9 in ESE 9.7 mph 18.5 mph 43% 0 in
17:24 95 °F 68.9 °F 29.9 in ESE 9.7 mph 19 mph 43% 0 in
17:29 94.8 °F 68.7 °F 29.9 in ESE 9.9 mph 19 mph 42.8% 0 in
17:34 94.6 °F 68.2 °F 29.9 in ESE 10.7 mph 17.3 mph 42.3% 0 in
17:39 94.5 °F 67.3 °F 29.9 in ESE 10.7 mph 17.3 mph 41.3% 0 in
17:44 94.6 °F 67.1 °F 29.9 in ESE 10.7 mph 17 mph 40.7% 0 in
17:49 95 °F 66.7 °F 29.9 in ESE 9.8 mph 14 mph 39.7% 0 in
17:54 95.2 °F 66.2 °F 29.8 in Este 7.6 mph 13 mph 38.8% 0 in
17:59 95.2 °F 65.7 °F 29.8 in ESE 7.8 mph 14.7 mph 38.1% 0 in
18:04 95 °F 64.9 °F 29.8 in ESE 8.1 mph 15.2 mph 37.3% 0 in
18:09 94.6 °F 64.8 °F 29.8 in ESE 8.6 mph 15 mph 37.4% 0 in
18:14 94.6 °F 65.1 °F 29.8 in ESE 10 mph 17.5 mph 38% 0 in
18:19 94.5 °F 64.9 °F 29.8 in ESE 10.1 mph 17 mph 38% 0 in
18:24 94.5 °F 64.9 °F 29.8 in ESE 10.2 mph 16.3 mph 38% 0 in
18:29 94.3 °F 64.8 °F 29.8 in ESE 10.1 mph 16 mph 37.9% 0 in
18:34 94.5 °F 64.2 °F 29.8 in ESE 9.7 mph 15 mph 37.1% 0 in
18:39 94.3 °F 64.8 °F 29.8 in ESE 9.7 mph 15 mph 38% 0 in
18:44 94.1 °F 63.9 °F 29.8 in SE 9.7 mph 15.2 mph 37% 0 in
18:49 94.3 °F 64 °F 29.8 in ESE 9.4 mph 15 mph 37.1% 0 in
18:54 94.5 °F 64.2 °F 29.8 in ESE 8.7 mph 14 mph 37% 0 in
18:59 94.3 °F 64.2 °F 29.8 in ESE 8 mph 13 mph 37.3% 0 in
19:04 94.1 °F 64.6 °F 29.8 in ESE 6.4 mph 14 mph 37.9% 0 in
19:09 93.7 °F 64.4 °F 29.8 in ESE 7 mph 15 mph 38.2% 0 in
19:14 93.6 °F 64.8 °F 29.8 in ESE 8.5 mph 15 mph 38.9% 0 in
19:19 93.2 °F 64.6 °F 29.8 in Este 8.5 mph 15 mph 39% 0 in
19:24 93.2 °F 64.6 °F 29.8 in Este 8.5 mph 13 mph 39% 0 in
19:29 93 °F 64.4 °F 29.8 in Este 7.9 mph 11 mph 39% 0 in
19:34 92.8 °F 64.4 °F 29.8 in Este 6.4 mph 10 mph 39.1% 0 in
19:39 92.8 °F 64.4 °F 29.8 in Este 6.2 mph 9.2 mph 39.2% 0 in
19:44 92.7 °F 64 °F 29.8 in NE 5.4 mph 13.8 mph 39% 0 in
19:49 92.1 °F 63.3 °F 29.8 in NE 5.8 mph 19.6 mph 38.5% 0 in
19:54 91.6 °F 63.3 °F 29.8 in NE 6.9 mph 20 mph 39.3% 0 in
19:59 90.9 °F 64.8 °F 29.8 in NE 7.8 mph 17 mph 42.1% 0 in
20:04 90 °F 65.1 °F 29.8 in NE 10 mph 16.1 mph 44.1% 0 in
20:09 89.2 °F 65.1 °F 29.8 in NE 9.9 mph 16 mph 45% 0 in
20:14 88.9 °F 65.5 °F 29.8 in NE 9.7 mph 15 mph 46% 0 in
20:19 88.3 °F 65.5 °F 29.8 in NNE 9.6 mph 15 mph 46.8% 0 in
20:24 88.2 °F 65.5 °F 29.8 in NE 9.2 mph 15.2 mph 47.3% 0 in
20:29 87.6 °F 65.5 °F 29.8 in NE 8.9 mph 15 mph 48% 0 in
20:34 87.3 °F 65.5 °F 29.8 in NE 8.1 mph 15 mph 48.5% 0 in
20:39 87.1 °F 65.5 °F 29.8 in NE 8.3 mph 15 mph 49% 0 in
20:44 86.7 °F 65.3 °F 29.8 in NE 8.7 mph 13.8 mph 49% 0 in
20:49 86.4 °F 64.9 °F 29.8 in NE 8.5 mph 14 mph 49% 0 in
20:54 86 °F 64.8 °F 29.8 in NE 8.1 mph 12 mph 49.3% 0 in
20:59 85.6 °F 64.9 °F 29.8 in NE 7.5 mph 12.5 mph 50% 0 in
21:04 85.3 °F 65.1 °F 29.8 in NE 6.2 mph 13 mph 51% 0 in
21:09 85.1 °F 65.3 °F 29.8 in NE 6.2 mph 11.5 mph 51.9% 0 in
21:14 84.9 °F 65.7 °F 29.8 in NE 6.2 mph 13.8 mph 52.6% 0 in
21:19 84.6 °F 65.7 °F 29.8 in NE 6.2 mph 14 mph 53% 0 in
21:24 84.6 °F 65.5 °F 29.8 in ENE 6.2 mph 9 mph 53% 0 in
21:29 84.2 °F 65.7 °F 29.8 in NE 5.7 mph 9 mph 53.8% 0 in
21:34 83.8 °F 65.5 °F 29.9 in NE 4.3 mph 10.7 mph 54% 0 in
21:39 83.7 °F 65.8 °F 29.9 in NE 4.7 mph 12.3 mph 55% 0 in
21:44 83.3 °F 66.6 °F 29.9 in NE 5.9 mph 13 mph 57.1% 0 in
21:49 82.9 °F 67.5 °F 29.9 in NE 6.4 mph 13 mph 59.6% 0 in
21:54 82.8 °F 67.6 °F 29.9 in NE 7.6 mph 13 mph 60.4% 0 in
21:59 82.6 °F 67.3 °F 29.9 in NE 7.6 mph 15 mph 60.1% 0 in
22:04 82.6 °F 67.3 °F 29.9 in NE 7.6 mph 15 mph 59.8% 0 in
22:09 82.6 °F 66.6 °F 29.9 in NE 7.9 mph 15 mph 58.7% 0 in
22:14 82.6 °F 66 °F 29.9 in NE 8.5 mph 15 mph 57.5% 0 in
22:19 82.6 °F 65.5 °F 29.9 in NE 8.5 mph 13 mph 56.3% 0 in
22:24 82.6 °F 65.3 °F 29.9 in NE 8.5 mph 13 mph 56% 0 in
22:29 82.6 °F 64.9 °F 29.9 in NE 8.2 mph 12 mph 55.4% 0 in
22:34 82.4 °F 64.6 °F 29.9 in NE 7.4 mph 10 mph 55% 0 in
22:39 82.4 °F 64.6 °F 29.9 in NE 6.8 mph 10.4 mph 55% 0 in
22:44 82.2 °F 64.4 °F 29.9 in NE 5.4 mph 10 mph 55% 0 in
22:49 82 °F 64.4 °F 29.9 in NE 5.4 mph 10 mph 55% 0 in
22:54 82 °F 64.4 °F 29.9 in NE 5.4 mph 10 mph 55.4% 0 in
22:59 81.9 °F 64.6 °F 29.9 in NE 5.7 mph 9.7 mph 56% 0 in
23:04 81.7 °F 64.8 °F 29.9 in NE 6.2 mph 10 mph 56.6% 0 in
23:09 81.3 °F 64.8 °F 29.9 in NE 5.9 mph 9 mph 57.2% 0 in
23:14 81.1 °F 65.3 °F 29.9 in NE 5.2 mph 8 mph 58.4% 0 in
23:19 81 °F 66.7 °F 29.9 in NE 5 mph 9.2 mph 61.9% 0 in
23:24 80.8 °F 66.7 °F 29.9 in NE 4.7 mph 9 mph 62.8% 0 in
23:29 80.4 °F 67.5 °F 29.9 in NNE 4.8 mph 8 mph 64.7% 0 in
23:34 80.2 °F 67.5 °F 29.9 in NE 5.2 mph 9.2 mph 65.2% 0 in
23:39 80.1 °F 68 °F 29.9 in NE 5.4 mph 9 mph 66.8% 0 in
23:44 79.9 °F 68.7 °F 29.9 in NNE 5.9 mph 9 mph 68.8% 0 in
23:49 79.5 °F 69.4 °F 29.9 in NNE 5.7 mph 9.2 mph 71.3% 0 in
23:54 79.3 °F 70.2 °F 29.9 in NNE 5.2 mph 9 mph 73.5% 0 in
23:59 79.2 °F 70.5 °F 29.9 in NE 5.3 mph 9 mph 75.1% 0 in
Murcia-Puente Tocinos, España
Compliments of Weather Underground - 2.75 mb

La estación de MeteoMurcia.com, publica sus datos en los siguientes proyectos:

Weather Underground PWS IMURCIAP2 Meteoclimatic www.awekas.at

W3Counter
Web Analytics